Time;durP1;ratioP1;P1;durP2;ratioP2;P2;SDS_P1;SDS_P2;PMS_P1;PMS_P2;Temp;Humidity;BMP_temperature;BMP_pressure;BME280_temperature;BME280_humidity;BME280_pressure;Samples;Min_cycle;Max_cycle;Signal;HPM_P1;HPM_P2
2022/10/25 00:01:18;;;;;;;1.52;1.10;;;;;;;;;;5034580;28;20021;-70
2022/10/25 00:03:43;;;;;;;0.20;0.20;;;;;;;;;;5034405;28;20022;-70
2022/10/25 00:06:09;;;;;;;0.30;0.30;;;;;;;;;;5034680;28;20495;-70
2022/10/25 00:08:35;;;;;;;0.30;0.30;;;;;;;;;;5034349;28;20033;-71
2022/10/25 00:11:00;;;;;;;1.30;0.98;;;;;;;;;;5034276;28;20029;-71
2022/10/25 00:13:25;;;;;;;0.40;0.40;;;;;;;;;;5034234;28;20040;-71
2022/10/25 00:15:51;;;;;;;0.45;0.45;;;;;;;;;;5034524;28;20033;-71
2022/10/25 00:18:16;;;;;;;0.32;0.30;;;;;;;;;;5034449;28;20025;-71
2022/10/25 00:20:42;;;;;;;0.20;0.20;;;;;;;;;;5034201;28;20025;-70
2022/10/25 00:23:07;;;;;;;0.20;0.20;;;;;;;;;;5034164;28;20484;-70
2022/10/25 00:25:33;;;;;;;0.20;0.20;;;;;;;;;;5034007;28;20095;-71
2022/10/25 00:27:58;;;;;;;0.20;0.20;;;;;;;;;;5016855;28;20029;-71
2022/10/25 00:30:24;;;;;;;0.20;0.20;;;;;;;;;;5034256;28;20405;-72
2022/10/25 00:32:51;;;;;;;0.30;0.30;;;;;;;;;;5034000;28;20025;-71
2022/10/25 00:35:17;;;;;;;0.20;0.20;;;;;;;;;;5034035;28;20025;-71
2022/10/25 00:37:42;;;;;;;0.10;0.10;;;;;;;;;;5033845;28;20374;-71
2022/10/25 00:40:08;;;;;;;0.20;0.20;;;;;;;;;;5033593;28;20037;-71
2022/10/25 00:42:33;;;;;;;0.30;0.30;;;;;;;;;;5033452;28;20046;-71
2022/10/25 00:45:10;;;;;;;1.70;1.60;;;;;;;;;;5033846;28;20056;-70
2022/10/25 00:47:41;;;;;;;0.47;0.47;;;;;;;;;;5033777;28;20115;-70
2022/10/25 00:50:10;;;;;;;0.40;0.40;;;;;;;;;;5033624;28;20021;-72
2022/10/25 00:52:36;;;;;;;1.15;1.15;;;;;;;;;;5033673;28;20498;-71
2022/10/25 00:55:03;;;;;;;0.20;0.20;;;;;;;;;;5033479;28;20038;-73
2022/10/25 00:57:31;;;;;;;0.52;0.50;;;;;;;;;;5032553;28;20040;-71
2022/10/25 00:59:57;;;;;;;0.20;0.20;;;;;;;;;;5033559;28;20475;-71
2022/10/25 01:02:23;;;;;;;1.00;1.00;;;;;;;;;;5033320;28;20032;-73
2022/10/25 01:04:49;;;;;;;0.70;0.70;;;;;;;;;;5033658;28;20091;-72
2022/10/25 01:07:14;;;;;;;0.20;0.20;;;;;;;;;;5033348;28;20037;-73
2022/10/25 01:09:40;;;;;;;0.20;0.20;;;;;;;;;;5033557;28;20060;-73
2022/10/25 01:12:06;;;;;;;1.27;1.23;;;;;;;;;;5033505;28;20022;-73
2022/10/25 01:14:37;;;;;;;0.20;0.20;;;;;;;;;;5033345;28;20080;-72
2022/10/25 01:17:08;;;;;;;0.20;0.20;;;;;;;;;;5033627;28;20052;-72
2022/10/25 01:20:00;;;;;;;0.20;0.20;;;;;;;;;;5033096;28;20033;-72
2022/10/25 01:22:28;;;;;;;0.15;0.15;;;;;;;;;;5029981;28;20045;-72
2022/10/25 01:25:12;;;;;;;0.17;0.17;;;;;;;;;;5015366;28;20029;-72
2022/10/25 01:27:56;;;;;;;0.20;0.20;;;;;;;;;;5033049;28;20029;-72
2022/10/25 01:30:23;;;;;;;0.20;0.20;;;;;;;;;;5032879;28;20034;-73
2022/10/25 01:33:04;;;;;;;0.20;0.20;;;;;;;;;;5033040;28;20029;-72
2022/10/25 01:35:42;;;;;;;4.65;4.05;;;;;;;;;;5033003;28;20033;-72
2022/10/25 01:38:15;;;;;;;0.30;0.30;;;;;;;;;;5032798;28;20036;-73
2022/10/25 01:40:40;;;;;;;0.20;0.20;;;;;;;;;;5032968;28;20112;-72
2022/10/25 01:43:26;;;;;;;0.20;0.20;;;;;;;;;;5032713;28;20136;-72
2022/10/25 01:45:59;;;;;;;0.20;0.20;;;;;;;;;;5032677;28;20115;-73
2022/10/25 01:48:28;;;;;;;0.20;0.20;;;;;;;;;;5033311;28;20060;-71
2022/10/25 01:50:53;;;;;;;0.20;0.20;;;;;;;;;;5015317;28;20485;-71
2022/10/25 01:53:18;;;;;;;0.20;0.20;;;;;;;;;;5034520;28;20038;-70
2022/10/25 01:55:53;;;;;;;4.72;4.35;;;;;;;;;;5037186;28;20057;-69
2022/10/25 01:58:39;;;;;;;0.22;0.22;;;;;;;;;;5037118;28;20025;-70
2022/10/25 02:01:20;;;;;;;0.30;0.30;;;;;;;;;;5036502;28;20042;-70
2022/10/25 02:03:51;;;;;;;0.20;0.20;;;;;;;;;;5036857;28;20033;-70
2022/10/25 02:06:20;;;;;;;0.20;0.20;;;;;;;;;;5036869;28;20034;-70
2022/10/25 02:08:46;;;;;;;0.45;0.45;;;;;;;;;;5036884;28;20030;-69
2022/10/25 02:11:30;;;;;;;0.10;0.10;;;;;;;;;;5036815;28;20017;-71
2022/10/25 02:13:59;;;;;;;0.10;0.10;;;;;;;;;;5036972;28;20377;-72
2022/10/25 02:16:30;;;;;;;0.20;0.20;;;;;;;;;;5036559;28;20045;-71
2022/10/25 02:18:58;;;;;;;0.20;0.20;;;;;;;;;;5019054;28;20422;-72
2022/10/25 02:21:25;;;;;;;0.20;0.20;;;;;;;;;;5036689;28;20036;-72
2022/10/25 02:23:51;;;;;;;0.20;0.20;;;;;;;;;;5036501;28;20358;-71
2022/10/25 02:26:17;;;;;;;0.20;0.20;;;;;;;;;;5036443;28;20045;-71
2022/10/25 02:28:43;;;;;;;0.65;0.65;;;;;;;;;;5036454;28;20018;-72
2022/10/25 02:31:10;;;;;;;0.20;0.20;;;;;;;;;;5036226;28;20029;-70
2022/10/25 02:33:36;;;;;;;0.20;0.20;;;;;;;;;;5036708;28;20033;-70
2022/10/25 02:36:28;;;;;;;0.20;0.20;;;;;;;;;;5036394;28;20032;-70
2022/10/25 02:38:53;;;;;;;0.20;0.20;;;;;;;;;;5033387;28;20219;-70
2022/10/25 02:41:20;;;;;;;0.20;0.20;;;;;;;;;;5036240;28;20065;-70
2022/10/25 02:43:45;;;;;;;0.75;0.75;;;;;;;;;;5036365;28;20060;-69
2022/10/25 02:46:12;;;;;;;0.82;0.82;;;;;;;;;;5036156;28;20042;-69
2022/10/25 02:48:38;;;;;;;1.40;1.30;;;;;;;;;;5036258;28;20067;-69
2022/10/25 02:51:04;;;;;;;0.20;0.20;;;;;;;;;;5035100;28;20025;-69
2022/10/25 02:53:30;;;;;;;0.20;0.20;;;;;;;;;;5036051;28;20038;-69
2022/10/25 02:55:59;;;;;;;0.20;0.20;;;;;;;;;;5035845;28;20056;-70
2022/10/25 02:58:24;;;;;;;0.20;0.20;;;;;;;;;;5018534;28;20045;-69
2022/10/25 03:00:50;;;;;;;0.20;0.20;;;;;;;;;;5035843;28;20064;-69
2022/10/25 03:03:15;;;;;;;0.20;0.20;;;;;;;;;;5021380;28;20038;-70
2022/10/25 03:05:43;;;;;;;0.35;0.35;;;;;;;;;;5012302;28;20030;-71
2022/10/25 03:08:08;;;;;;;0.30;0.30;;;;;;;;;;5012156;28;20057;-69
2022/10/25 03:10:35;;;;;;;0.10;0.10;;;;;;;;;;5011976;28;20058;-69
2022/10/25 03:13:00;;;;;;;0.20;0.20;;;;;;;;;;5012247;28;20034;-70
2022/10/25 03:15:26;;;;;;;0.20;0.20;;;;;;;;;;5012200;28;20061;-70
2022/10/25 03:17:51;;;;;;;0.20;0.20;;;;;;;;;;5012384;28;20103;-70
2022/10/25 03:20:17;;;;;;;0.20;0.20;;;;;;;;;;5011848;28;20026;-70
2022/10/25 03:22:42;;;;;;;0.47;0.47;;;;;;;;;;5012489;28;20121;-69
2022/10/25 03:25:08;;;;;;;0.20;0.20;;;;;;;;;;5012069;28;20033;-69
2022/10/25 03:27:33;;;;;;;0.20;0.20;;;;;;;;;;5010798;28;20037;-70
2022/10/25 03:29:58;;;;;;;0.47;0.47;;;;;;;;;;5009965;28;20195;-70
2022/10/25 03:32:24;;;;;;;0.20;0.20;;;;;;;;;;5010113;28;20053;-71
2022/10/25 03:34:49;;;;;;;0.20;0.20;;;;;;;;;;5010032;28;20038;-72
2022/10/25 03:37:15;;;;;;;0.20;0.20;;;;;;;;;;5009909;28;20111;-71
2022/10/25 03:39:40;;;;;;;0.10;0.10;;;;;;;;;;4994282;28;20034;-72
2022/10/25 03:42:05;;;;;;;0.20;0.20;;;;;;;;;;5011541;28;20093;-72
2022/10/25 03:44:31;;;;;;;0.20;0.20;;;;;;;;;;5011251;28;20026;-71
2022/10/25 03:46:56;;;;;;;0.20;0.20;;;;;;;;;;5011300;28;20050;-73
2022/10/25 03:49:22;;;;;;;0.17;0.17;;;;;;;;;;5022417;28;20021;-72
2022/10/25 03:51:47;;;;;;;0.13;0.13;;;;;;;;;;5028815;28;20021;-72
2022/10/25 03:54:13;;;;;;;0.25;0.25;;;;;;;;;;5011239;28;20513;-72
2022/10/25 03:56:38;;;;;;;0.47;0.47;;;;;;;;;;5028282;28;20037;-72
2022/10/25 03:59:04;;;;;;;3.88;3.70;;;;;;;;;;5029979;28;20030;-71
2022/10/25 04:01:29;;;;;;;0.20;0.20;;;;;;;;;;5021385;28;20525;-71
2022/10/25 04:03:55;;;;;;;0.10;0.10;;;;;;;;;;5025038;28;20092;-71
2022/10/25 04:06:20;;;;;;;0.10;0.10;;;;;;;;;;5030730;28;20072;-73
2022/10/25 04:08:45;;;;;;;0.20;0.20;;;;;;;;;;5029812;28;20033;-71
2022/10/25 04:11:11;;;;;;;0.20;0.20;;;;;;;;;;5024676;28;20018;-71
2022/10/25 04:13:36;;;;;;;0.30;0.30;;;;;;;;;;5027966;28;20033;-74
2022/10/25 04:16:06;;;;;;;0.50;0.45;;;;;;;;;;5019360;28;20021;-72
2022/10/25 04:18:31;;;;;;;0.40;0.40;;;;;;;;;;5029203;28;20132;-73
2022/10/25 04:20:57;;;;;;;0.10;0.10;;;;;;;;;;5028502;28;20486;-72
2022/10/25 04:23:22;;;;;;;0.17;0.17;;;;;;;;;;5028676;28;20856;-70
2022/10/25 04:25:48;;;;;;;0.20;0.20;;;;;;;;;;5024742;28;20445;-70
2022/10/25 04:28:14;;;;;;;0.38;0.38;;;;;;;;;;5021008;28;20013;-71
2022/10/25 04:30:39;;;;;;;0.20;0.20;;;;;;;;;;5030403;28;20042;-70
2022/10/25 04:33:05;;;;;;;0.20;0.20;;;;;;;;;;5030127;28;20067;-70
2022/10/25 04:35:30;;;;;;;0.55;0.55;;;;;;;;;;5030403;28;20037;-71
2022/10/25 04:37:56;;;;;;;0.10;0.10;;;;;;;;;;5025390;28;20155;-73
2022/10/25 04:40:22;;;;;;;0.10;0.10;;;;;;;;;;5012598;28;20427;-71
2022/10/25 04:42:47;;;;;;;0.20;0.20;;;;;;;;;;5030010;28;20041;-71
2022/10/25 04:45:12;;;;;;;27.15;11.98;;;;;;;;;;5029741;28;20039;-70
2022/10/25 04:47:38;;;;;;;0.25;0.25;;;;;;;;;;5029179;28;20493;-71
2022/10/25 04:50:03;;;;;;;0.20;0.20;;;;;;;;;;5011664;28;20087;-71
2022/10/25 04:52:29;;;;;;;0.20;0.20;;;;;;;;;;5016796;28;20045;-70
2022/10/25 04:54:55;;;;;;;0.10;0.10;;;;;;;;;;5010320;28;20034;-71
2022/10/25 04:57:20;;;;;;;0.10;0.10;;;;;;;;;;5009718;28;20026;-72
2022/10/25 04:59:46;;;;;;;0.30;0.30;;;;;;;;;;5010996;28;20029;-71
2022/10/25 05:02:11;;;;;;;0.10;0.10;;;;;;;;;;5011860;28;20037;-71
2022/10/25 05:04:36;;;;;;;0.28;0.28;;;;;;;;;;5028901;28;20108;-71
2022/10/25 05:07:02;;;;;;;0.22;0.22;;;;;;;;;;5029308;28;20033;-71
2022/10/25 05:09:27;;;;;;;0.30;0.30;;;;;;;;;;5029659;28;20032;-72
2022/10/25 05:11:53;;;;;;;0.20;0.20;;;;;;;;;;5018372;28;20029;-72
2022/10/25 05:14:18;;;;;;;0.20;0.20;;;;;;;;;;5028821;28;20027;-72
2022/10/25 05:16:44;;;;;;;0.20;0.20;;;;;;;;;;5029494;28;20084;-72
2022/10/25 05:19:09;;;;;;;0.20;0.20;;;;;;;;;;5029286;28;20040;-71
2022/10/25 05:21:34;;;;;;;0.32;0.32;;;;;;;;;;5029216;28;20049;-71
2022/10/25 05:24:00;;;;;;;0.10;0.10;;;;;;;;;;5029077;28;20082;-72
2022/10/25 05:26:25;;;;;;;0.10;0.10;;;;;;;;;;5028691;28;20033;-71
2022/10/25 05:28:51;;;;;;;0.10;0.10;;;;;;;;;;5028999;28;20028;-71
2022/10/25 05:31:19;;;;;;;0.30;0.30;;;;;;;;;;5029553;28;20113;-72
2022/10/25 05:33:45;;;;;;;0.20;0.20;;;;;;;;;;5029330;28;20469;-71
2022/10/25 05:36:11;;;;;;;0.52;0.52;;;;;;;;;;5029407;28;20038;-72
2022/10/25 05:38:37;;;;;;;0.30;0.30;;;;;;;;;;5028564;28;20029;-72
2022/10/25 05:41:02;;;;;;;0.13;0.13;;;;;;;;;;5028995;28;20025;-72
2022/10/25 05:43:28;;;;;;;0.20;0.20;;;;;;;;;;5026415;28;20076;-72
2022/10/25 05:46:00;;;;;;;0.13;0.13;;;;;;;;;;5026159;28;20029;-72
2022/10/25 05:48:25;;;;;;;0.17;0.17;;;;;;;;;;5025953;28;20172;-72
2022/10/25 05:50:52;;;;;;;0.20;0.20;;;;;;;;;;5027361;28;20483;-71
2022/10/25 05:53:18;;;;;;;0.10;0.10;;;;;;;;;;5006136;28;20036;-72
2022/10/25 05:55:43;;;;;;;0.20;0.20;;;;;;;;;;5021089;28;20362;-71
2022/10/25 05:58:09;;;;;;;0.20;0.20;;;;;;;;;;5022221;28;20034;-71
2022/10/25 06:00:34;;;;;;;0.17;0.17;;;;;;;;;;5010719;28;20021;-71
2022/10/25 06:03:00;;;;;;;0.20;0.20;;;;;;;;;;5024256;28;20036;-72
2022/10/25 06:05:26;;;;;;;0.20;0.20;;;;;;;;;;5007117;28;20040;-72
2022/10/25 06:07:51;;;;;;;0.10;0.10;;;;;;;;;;5009442;28;20030;-71
2022/10/25 06:10:16;;;;;;;0.40;0.40;;;;;;;;;;5018257;28;20083;-70
2022/10/25 06:12:42;;;;;;;0.20;0.20;;;;;;;;;;5028795;28;20053;-70
2022/10/25 06:15:08;;;;;;;0.20;0.20;;;;;;;;;;5008423;28;20452;-70
2022/10/25 06:17:33;;;;;;;0.10;0.10;;;;;;;;;;5027529;28;20032;-70
2022/10/25 06:19:59;;;;;;;0.85;0.85;;;;;;;;;;5029183;28;20504;-70
2022/10/25 06:22:24;;;;;;;0.20;0.20;;;;;;;;;;5008663;28;20465;-69
2022/10/25 06:24:49;;;;;;;0.20;0.20;;;;;;;;;;5028234;28;20069;-70
2022/10/25 06:27:15;;;;;;;0.20;0.20;;;;;;;;;;5026908;28;20038;-69
2022/10/25 06:29:40;;;;;;;0.43;0.43;;;;;;;;;;5029305;28;20487;-70
2022/10/25 06:32:06;;;;;;;0.20;0.20;;;;;;;;;;5027933;28;20033;-71
2022/10/25 06:34:31;;;;;;;0.20;0.20;;;;;;;;;;5027680;28;20492;-71
2022/10/25 06:36:56;;;;;;;0.40;0.40;;;;;;;;;;5028671;28;20477;-70
2022/10/25 06:39:22;;;;;;;0.20;0.20;;;;;;;;;;5030864;28;20037;-70
2022/10/25 06:41:47;;;;;;;30.58;13.88;;;;;;;;;;5032431;28;20021;-71
2022/10/25 06:44:14;;;;;;;0.30;0.30;;;;;;;;;;5014853;28;20088;-70
2022/10/25 06:46:40;;;;;;;0.20;0.20;;;;;;;;;;5030979;28;20077;-72
2022/10/25 06:49:05;;;;;;;0.52;0.52;;;;;;;;;;5031439;28;20068;-72
2022/10/25 06:51:32;;;;;;;0.20;0.20;;;;;;;;;;5030348;28;20026;-72
2022/10/25 06:53:58;;;;;;;0.20;0.20;;;;;;;;;;5032097;28;20037;-71
2022/10/25 06:56:24;;;;;;;0.43;0.43;;;;;;;;;;5031855;28;20025;-70
2022/10/25 06:58:50;;;;;;;0.20;0.20;;;;;;;;;;5030890;28;20048;-70
2022/10/25 07:01:16;;;;;;;1.50;1.40;;;;;;;;;;5030409;28;20033;-71
2022/10/25 07:03:42;;;;;;;0.20;0.20;;;;;;;;;;5032382;28;20028;-70
2022/10/25 07:06:15;;;;;;;0.70;0.68;;;;;;;;;;5031851;28;20065;-70
2022/10/25 07:08:42;;;;;;;1.20;1.20;;;;;;;;;;5031020;28;20511;-70
2022/10/25 07:11:14;;;;;;;0.30;0.30;;;;;;;;;;5032082;28;20376;-71
2022/10/25 07:13:40;;;;;;;3.10;1.85;;;;;;;;;;5031952;28;20037;-71
2022/10/25 07:16:08;;;;;;;0.20;0.20;;;;;;;;;;5029897;28;20040;-71
2022/10/25 07:18:34;;;;;;;0.43;0.43;;;;;;;;;;5030490;28;20133;-71
2022/10/25 07:21:00;;;;;;;0.17;0.17;;;;;;;;;;5031605;28;20041;-71
2022/10/25 07:23:26;;;;;;;0.40;0.40;;;;;;;;;;5031520;28;20034;-72
2022/10/25 07:25:52;;;;;;;0.20;0.20;;;;;;;;;;5031628;28;20041;-71
2022/10/25 07:28:17;;;;;;;0.30;0.30;;;;;;;;;;5031405;28;20040;-70
2022/10/25 07:30:45;;;;;;;0.57;0.57;;;;;;;;;;5027352;28;20030;-68
2022/10/25 07:33:10;;;;;;;1.40;1.40;;;;;;;;;;5028176;28;20026;-71
2022/10/25 07:35:35;;;;;;;7.80;2.95;;;;;;;;;;5030212;28;20362;-70
2022/10/25 07:38:01;;;;;;;0.40;0.40;;;;;;;;;;5023545;28;20374;-70
2022/10/25 07:40:26;;;;;;;0.32;0.32;;;;;;;;;;5010927;28;20463;-70
2022/10/25 07:42:52;;;;;;;0.22;0.22;;;;;;;;;;5019959;28;20053;-70
2022/10/25 07:45:17;;;;;;;0.20;0.20;;;;;;;;;;5030880;28;20431;-70
2022/10/25 07:47:43;;;;;;;0.20;0.20;;;;;;;;;;5028762;28;20099;-70
2022/10/25 07:50:08;;;;;;;0.20;0.20;;;;;;;;;;5030713;28;20408;-70
2022/10/25 07:52:34;;;;;;;0.10;0.10;;;;;;;;;;5029496;28;20035;-71
2022/10/25 07:54:59;;;;;;;0.25;0.25;;;;;;;;;;5030727;28;20451;-70
2022/10/25 07:57:24;;;;;;;0.40;0.40;;;;;;;;;;5030575;28;20745;-70
2022/10/25 07:59:50;;;;;;;0.20;0.20;;;;;;;;;;5029497;28;20025;-70
2022/10/25 08:02:15;;;;;;;1.58;1.48;;;;;;;;;;5025041;28;20018;-70
2022/10/25 08:04:42;;;;;;;0.40;0.40;;;;;;;;;;5018088;28;20034;-70
2022/10/25 08:07:07;;;;;;;0.30;0.30;;;;;;;;;;5021316;28;20107;-72
2022/10/25 08:09:33;;;;;;;0.20;0.20;;;;;;;;;;5017387;28;20029;-70
2022/10/25 08:11:58;;;;;;;0.20;0.20;;;;;;;;;;5026016;28;20041;-72
2022/10/25 08:14:24;;;;;;;0.40;0.40;;;;;;;;;;5029579;28;20121;-70
2022/10/25 08:16:49;;;;;;;0.20;0.20;;;;;;;;;;5019245;28;20091;-70
2022/10/25 08:19:14;;;;;;;0.20;0.20;;;;;;;;;;5018950;28;20034;-71
2022/10/25 08:21:40;;;;;;;0.20;0.20;;;;;;;;;;5028719;28;20139;-71
2022/10/25 08:24:05;;;;;;;0.50;0.50;;;;;;;;;;5025695;28;20033;-71
2022/10/25 08:26:31;;;;;;;0.20;0.20;;;;;;;;;;5028546;28;20030;-70
2022/10/25 08:28:56;;;;;;;0.20;0.20;;;;;;;;;;5030521;28;20090;-70
2022/10/25 08:31:21;;;;;;;0.57;0.57;;;;;;;;;;5029467;28;20037;-70
2022/10/25 08:33:47;;;;;;;1.27;1.17;;;;;;;;;;5029774;28;20026;-69
2022/10/25 08:36:12;;;;;;;0.20;0.20;;;;;;;;;;5034647;28;20033;-70
2022/10/25 08:38:38;;;;;;;0.40;0.40;;;;;;;;;;5030638;28;20116;-70
2022/10/25 08:41:05;;;;;;;0.77;0.77;;;;;;;;;;5028913;28;20022;-70
2022/10/25 08:43:49;;;;;;;0.20;0.20;;;;;;;;;;5026782;28;20053;-70
2022/10/25 08:46:33;;;;;;;0.35;0.35;;;;;;;;;;5024407;28;20116;-70
2022/10/25 08:49:12;;;;;;;5.15;1.17;;;;;;;;;;5009911;28;20050;-70
2022/10/25 08:51:39;;;;;;;0.20;0.20;;;;;;;;;;5010048;28;20551;-71
2022/10/25 08:54:11;;;;;;;0.20;0.20;;;;;;;;;;5010082;28;20022;-70
2022/10/25 08:56:37;;;;;;;0.10;0.10;;;;;;;;;;5009036;28;20384;-71
2022/10/25 08:59:03;;;;;;;1.23;1.10;;;;;;;;;;5007604;28;20030;-70
2022/10/25 09:01:49;;;;;;;1.13;1.02;;;;;;;;;;4989581;28;20433;-69
2022/10/25 09:04:14;;;;;;;0.45;0.45;;;;;;;;;;5007173;28;20113;-69
2022/10/25 09:06:42;;;;;;;1.27;1.05;;;;;;;;;;5007387;28;20203;-70
2022/10/25 09:09:08;;;;;;;3.75;1.65;;;;;;;;;;5007456;28;20104;-70
2022/10/25 09:11:52;;;;;;;1.30;0.95;;;;;;;;;;5008354;28;20034;-69
2022/10/25 09:14:29;;;;;;;0.40;0.40;;;;;;;;;;5009041;28;20052;-69
2022/10/25 09:16:58;;;;;;;0.22;0.22;;;;;;;;;;4991844;28;20026;-69
2022/10/25 09:19:31;;;;;;;0.20;0.20;;;;;;;;;;5009161;28;20061;-69
2022/10/25 09:21:59;;;;;;;0.30;0.30;;;;;;;;;;5009449;28;20413;-69
2022/10/25 09:24:50;;;;;;;0.52;0.52;;;;;;;;;;5008951;28;20022;-69
2022/10/25 09:27:22;;;;;;;1.13;0.70;;;;;;;;;;5008907;28;20046;-69
2022/10/25 09:29:58;;;;;;;3.72;2.40;;;;;;;;;;5009230;28;20022;-69
2022/10/25 09:32:42;;;;;;;3.40;1.67;;;;;;;;;;5008847;28;20030;-70
2022/10/25 09:35:15;;;;;;;0.20;0.20;;;;;;;;;;5008857;28;20126;-70
2022/10/25 09:37:44;;;;;;;1.73;1.10;;;;;;;;;;5008811;28;20033;-71
2022/10/25 09:40:31;;;;;;;1.02;0.95;;;;;;;;;;5008980;28;20057;-70
2022/10/25 09:43:02;;;;;;;0.88;0.88;;;;;;;;;;5021461;28;20060;-70
2022/10/25 09:45:39;;;;;;;0.82;0.82;;;;;;;;;;5028555;28;20034;-69
2022/10/25 09:48:12;;;;;;;0.77;0.77;;;;;;;;;;5028658;28;20084;-69
2022/10/25 09:50:46;;;;;;;0.22;0.22;;;;;;;;;;5028678;28;20381;-69
2022/10/25 09:53:16;;;;;;;6.40;1.10;;;;;;;;;;5026578;28;20425;-70
2022/10/25 09:55:50;;;;;;;0.63;0.63;;;;;;;;;;5026636;28;20029;-70
2022/10/25 09:58:21;;;;;;;0.50;0.50;;;;;;;;;;5026603;28;20037;-71
2022/10/25 10:00:46;;;;;;;0.80;0.80;;;;;;;;;;5026414;28;20108;-69
2022/10/25 10:03:12;;;;;;;3.63;1.60;;;;;;;;;;5026581;28;20108;-69
2022/10/25 10:05:45;;;;;;;0.20;0.20;;;;;;;;;;5026531;28;20025;-68
2022/10/25 10:08:11;;;;;;;1.40;1.30;;;;;;;;;;5026592;28;20093;-70
2022/10/25 10:10:36;;;;;;;2.92;1.23;;;;;;;;;;5026614;28;20033;-69
2022/10/25 10:13:11;;;;;;;2.15;1.67;;;;;;;;;;5026295;28;20051;-70
2022/10/25 10:15:43;;;;;;;0.32;0.32;;;;;;;;;;5031015;28;20484;-71
2022/10/25 10:18:18;;;;;;;0.45;0.40;;;;;;;;;;5030338;28;20447;-70
2022/10/25 10:21:13;;;;;;;1.70;1.20;;;;;;;;;;5030439;28;20041;-69
2022/10/25 10:23:41;;;;;;;2.08;1.55;;;;;;;;;;5013023;28;20911;-69
2022/10/25 10:26:09;;;;;;;0.55;0.55;;;;;;;;;;5030163;28;20048;-72
2022/10/25 10:28:35;;;;;;;0.95;0.85;;;;;;;;;;5029467;28;20029;-70
2022/10/25 10:31:02;;;;;;;1.27;0.70;;;;;;;;;;5030272;28;20029;-69
2022/10/25 10:33:29;;;;;;;0.63;0.63;;;;;;;;;;5030192;28;20026;-69
2022/10/25 10:35:55;;;;;;;0.20;0.20;;;;;;;;;;5029944;28;20040;-70
2022/10/25 10:38:25;;;;;;;8.77;1.88;;;;;;;;;;5029470;28;20555;-69
2022/10/25 10:40:52;;;;;;;1.70;1.23;;;;;;;;;;5029674;28;20040;-71
2022/10/25 10:43:27;;;;;;;0.57;0.40;;;;;;;;;;4999367;28;20061;-71
2022/10/25 10:45:55;;;;;;;2.22;1.30;;;;;;;;;;4971084;28;20050;-69
2022/10/25 10:48:21;;;;;;;2.50;1.00;;;;;;;;;;4970910;28;20039;-69
2022/10/25 10:50:48;;;;;;;0.40;0.40;;;;;;;;;;4970596;28;20042;-70
2022/10/25 10:53:19;;;;;;;1.02;0.73;;;;;;;;;;4970551;28;20029;-71
2022/10/25 10:55:45;;;;;;;1.50;1.33;;;;;;;;;;4969640;28;20039;-71
2022/10/25 10:58:30;;;;;;;0.20;0.20;;;;;;;;;;4971025;28;20034;-70
2022/10/25 11:01:12;;;;;;;1.98;0.68;;;;;;;;;;4970872;28;20054;-69
2022/10/25 11:03:40;;;;;;;0.52;0.52;;;;;;;;;;4970784;28;20117;-71
2022/10/25 11:06:06;;;;;;;0.40;0.40;;;;;;;;;;4970575;28;20462;-70
2022/10/25 11:08:31;;;;;;;0.40;0.40;;;;;;;;;;4970691;28;20139;-71
2022/10/25 11:11:12;;;;;;;0.22;0.22;;;;;;;;;;4971074;28;20281;-71
2022/10/25 11:13:37;;;;;;;0.80;0.80;;;;;;;;;;4969032;28;20042;-70
2022/10/25 11:16:17;;;;;;;0.50;0.50;;;;;;;;;;4971090;28;20034;-71
2022/10/25 11:18:42;;;;;;;0.43;0.43;;;;;;;;;;4972845;28;20033;-70
2022/10/25 11:21:12;;;;;;;0.43;0.40;;;;;;;;;;4972301;28;20142;-72
2022/10/25 11:23:52;;;;;;;0.20;0.20;;;;;;;;;;4972640;28;20058;-69
2022/10/25 11:26:36;;;;;;;1.75;0.82;;;;;;;;;;4972085;28;20121;-72
2022/10/25 11:29:25;;;;;;;0.20;0.20;;;;;;;;;;4972362;28;20471;-71
2022/10/25 11:31:50;;;;;;;5.47;1.45;;;;;;;;;;4967198;28;20090;-69
2022/10/25 11:34:34;;;;;;;0.30;0.30;;;;;;;;;;4972316;28;20549;-70
2022/10/25 11:37:19;;;;;;;0.32;0.32;;;;;;;;;;4972101;28;20034;-70
2022/10/25 11:39:51;;;;;;;1.30;0.93;;;;;;;;;;4971086;28;20545;-69
2022/10/25 11:42:29;;;;;;;0.20;0.20;;;;;;;;;;4977970;28;20397;-72
2022/10/25 11:45:13;;;;;;;0.90;0.60;;;;;;;;;;5010991;28;20108;-71
2022/10/25 11:47:47;;;;;;;0.20;0.20;;;;;;;;;;5011120;28;20474;-70
2022/10/25 11:50:18;;;;;;;0.40;0.40;;;;;;;;;;5018665;28;20026;-71
2022/10/25 11:53:02;;;;;;;3.40;2.33;;;;;;;;;;5024881;28;20029;-71
2022/10/25 11:55:39;;;;;;;0.20;0.20;;;;;;;;;;5022671;28;20060;-71
2022/10/25 11:58:07;;;;;;;0.20;0.20;;;;;;;;;;5029561;28;20053;-69
2022/10/25 12:00:42;;;;;;;0.50;0.50;;;;;;;;;;5027187;28;20381;-70
2022/10/25 12:03:17;;;;;;;0.20;0.20;;;;;;;;;;5030969;28;20280;-72
2022/10/25 12:05:57;;;;;;;0.55;0.55;;;;;;;;;;5030586;28;20104;-72
2022/10/25 12:08:25;;;;;;;0.32;0.32;;;;;;;;;;5009772;28;20547;-70
2022/10/25 12:10:56;;;;;;;0.20;0.20;;;;;;;;;;5017583;28;20393;-71
2022/10/25 12:13:25;;;;;;;3.67;3.08;;;;;;;;;;5021170;28;20029;-71
2022/10/25 12:15:52;;;;;;;5.30;4.80;;;;;;;;;;5017962;28;20087;-71
2022/10/25 12:18:20;;;;;;;0.20;0.20;;;;;;;;;;5014967;28;20018;-72
2022/10/25 12:20:48;;;;;;;0.45;0.40;;;;;;;;;;5017608;28;20053;-71
2022/10/25 12:23:15;;;;;;;0.30;0.30;;;;;;;;;;5020484;28;20025;-71
2022/10/25 12:25:45;;;;;;;0.40;0.40;;;;;;;;;;5013802;28;20034;-70
2022/10/25 12:28:25;;;;;;;10.00;1.98;;;;;;;;;;5016988;28;20038;-71
2022/10/25 12:30:55;;;;;;;0.60;0.60;;;;;;;;;;5009997;28;20048;-72
2022/10/25 12:33:39;;;;;;;0.20;0.20;;;;;;;;;;5008928;28;20030;-69
2022/10/25 12:36:08;;;;;;;2.30;1.23;;;;;;;;;;5018918;28;20053;-70
2022/10/25 12:38:36;;;;;;;0.75;0.73;;;;;;;;;;5027684;28;20028;-71
2022/10/25 12:41:03;;;;;;;0.20;0.20;;;;;;;;;;5011022;28;20052;-73
2022/10/25 12:43:40;;;;;;;0.77;0.73;;;;;;;;;;5027318;28;20048;-71
2022/10/25 12:46:06;;;;;;;0.20;0.20;;;;;;;;;;5027822;28;20095;-72
2022/10/25 12:48:51;;;;;;;0.80;0.73;;;;;;;;;;5027707;28;20021;-70
2022/10/25 12:51:17;;;;;;;2.70;1.85;;;;;;;;;;5010682;28;20403;-71
2022/10/25 12:53:51;;;;;;;0.20;0.20;;;;;;;;;;5027443;28;20025;-70
2022/10/25 12:56:25;;;;;;;0.77;0.77;;;;;;;;;;5027139;28;20045;-71
2022/10/25 12:59:03;;;;;;;0.20;0.20;;;;;;;;;;5026500;28;20083;-72
2022/10/25 13:01:28;;;;;;;0.20;0.20;;;;;;;;;;5027448;28;20029;-71
2022/10/25 13:04:06;;;;;;;0.70;0.70;;;;;;;;;;5027095;28;20017;-70
2022/10/25 13:06:35;;;;;;;0.30;0.30;;;;;;;;;;5027006;28;20034;-71
2022/10/25 13:09:08;;;;;;;0.70;0.70;;;;;;;;;;5027587;28;20104;-70
2022/10/25 13:11:36;;;;;;;0.20;0.20;;;;;;;;;;5028063;28;20025;-70
2022/10/25 13:14:02;;;;;;;0.30;0.30;;;;;;;;;;5028930;28;20056;-71
2022/10/25 13:16:29;;;;;;;0.35;0.35;;;;;;;;;;5028860;28;20052;-72
2022/10/25 13:19:13;;;;;;;2.65;1.85;;;;;;;;;;5011620;28;20030;-71
2022/10/25 13:21:51;;;;;;;4.15;0.93;;;;;;;;;;5029409;28;20392;-71
2022/10/25 13:24:34;;;;;;;1.02;1.02;;;;;;;;;;5028984;28;20362;-72
2022/10/25 13:27:12;;;;;;;0.20;0.20;;;;;;;;;;5029485;28;20096;-70
2022/10/25 13:29:57;;;;;;;0.30;0.30;;;;;;;;;;5031899;28;20031;-71
2022/10/25 13:32:23;;;;;;;0.30;0.30;;;;;;;;;;5035962;28;20079;-74
2022/10/25 13:34:48;;;;;;;0.22;0.22;;;;;;;;;;5036012;28;20021;-73
2022/10/25 13:37:46;;;;;;;0.77;0.77;;;;;;;;;;5029472;28;20025;-71
2022/10/25 13:40:17;;;;;;;3.22;2.35;;;;;;;;;;4974172;28;20491;-71
2022/10/25 13:42:43;;;;;;;0.57;0.57;;;;;;;;;;5029131;28;20392;-71
2022/10/25 13:45:19;;;;;;;1.98;1.70;;;;;;;;;;5028964;28;20030;-72
2022/10/25 13:47:46;;;;;;;1.30;1.30;;;;;;;;;;5012924;28;20421;-71
2022/10/25 13:50:14;;;;;;;0.20;0.20;;;;;;;;;;5017854;28;20029;-72
2022/10/25 13:52:49;;;;;;;0.98;0.85;;;;;;;;;;5034766;28;20033;-72
2022/10/25 13:55:15;;;;;;;0.25;0.25;;;;;;;;;;5035725;28;20075;-71
2022/10/25 13:57:49;;;;;;;0.22;0.22;;;;;;;;;;5035528;28;20057;-71
2022/10/25 14:00:26;;;;;;;0.30;0.30;;;;;;;;;;5035234;28;20041;-70
2022/10/25 14:03:02;;;;;;;1.75;1.65;;;;;;;;;;5035278;28;20079;-71
2022/10/25 14:05:46;;;;;;;0.20;0.20;;;;;;;;;;5033589;28;20044;-71
2022/10/25 14:08:23;;;;;;;0.63;0.63;;;;;;;;;;5015690;28;20437;-73
2022/10/25 14:10:49;;;;;;;0.85;0.85;;;;;;;;;;5033439;28;20480;-70
2022/10/25 14:13:20;;;;;;;6.53;1.65;;;;;;;;;;5033250;28;20025;-72
2022/10/25 14:15:55;;;;;;;0.82;0.50;;;;;;;;;;5033289;28;20044;-71
2022/10/25 14:18:21;;;;;;;0.60;0.60;;;;;;;;;;5032382;28;20040;-70
2022/10/25 14:20:48;;;;;;;2.63;0.95;;;;;;;;;;5015335;28;20045;-71
2022/10/25 14:23:14;;;;;;;3.10;2.28;;;;;;;;;;5015218;28;20029;-74
2022/10/25 14:25:41;;;;;;;0.30;0.30;;;;;;;;;;5033243;28;20388;-71
2022/10/25 14:28:12;;;;;;;0.20;0.20;;;;;;;;;;5032756;28;20050;-70
2022/10/25 14:30:42;;;;;;;0.73;0.47;;;;;;;;;;5032421;28;20040;-70
2022/10/25 14:33:20;;;;;;;0.30;0.30;;;;;;;;;;5015598;28;20064;-71
2022/10/25 14:35:47;;;;;;;0.50;0.38;;;;;;;;;;5015212;28;20037;-70
2022/10/25 14:38:14;;;;;;;0.38;0.28;;;;;;;;;;5032927;28;20029;-73
2022/10/25 14:40:39;;;;;;;19.98;3.30;;;;;;;;;;5032496;28;20029;-72
2022/10/25 14:43:20;;;;;;;2.05;1.95;;;;;;;;;;5032436;28;20086;-71
2022/10/25 14:45:53;;;;;;;0.20;0.20;;;;;;;;;;5015040;28;20029;-71
2022/10/25 14:48:18;;;;;;;1.10;0.93;;;;;;;;;;5032854;28;20044;-71
2022/10/25 14:50:44;;;;;;;2.28;2.15;;;;;;;;;;5033081;28;20025;-70
2022/10/25 14:53:14;;;;;;;0.10;0.10;;;;;;;;;;5014464;28;20167;-72
2022/10/25 14:55:48;;;;;;;1.15;1.00;;;;;;;;;;5015514;28;20044;-72